Overview Statistics Trail Chart Weather Telemetry Raw packets
 

This is the latest recevied weather packets stored in our database for station/object N3TJJ-2. If no packets are shown the sender has not sent any weather packets the latest 10 day(s).

<< 72 73 74 75 76 77 78 >>
Time Temp. Humidity Pressure Rain* Wind** Luminosity Snow
1787975327 20.56° C 71% 1020.9 hPa 0 mm - - -
1787974963 20° C 71% 1020.9 hPa 0 mm - - -
1787974615 20.56° C 72% 1020.9 hPa 0 mm - - -
1787974247 20.56° C 72% 1020.9 hPa 0 mm - - -
1787973882 20.56° C 70% 1020.7 hPa 0 mm - - -
1787973567 20° C 69% 1020.6 hPa 0 mm - - -
1787973214 20.56° C 68% 1020.6 hPa 0 mm - - -
1787972803 20.56° C 69% 1020.5 hPa 0 mm - - -
1787972448 21.11° C 71% 1020.6 hPa 0 mm - - -
1787972085 21.11° C 73% 1020.5 hPa 0 mm - - -
1787971763 21.11° C 73% 1020.5 hPa 0 mm - - -
1787971393 21.11° C 72% 1020.4 hPa 0 mm - - -
1787971017 21.11° C 72% 1020.3 hPa 0 mm - - -
1787970653 20.56° C 69% 1020.3 hPa 0 mm - - -
1787970289 20° C 67% 1020.2 hPa 0 mm - - -
1787969941 20.56° C 69% 1020.2 hPa 0 mm - - -
1787969566 20.56° C 73% 1020.2 hPa 0 mm - - -
1787969208 21.11° C 74% 1020.2 hPa 0 mm - - -
1787968851 21.11° C 74% 1020.2 hPa 0 mm - - -
1787968494 21.67° C 76% 1020.2 hPa 0 mm - - -
1787968131 22.22° C 77% 1020.1 hPa 0 mm - - -
1787967765 22.78° C 77% 1020.1 hPa 0 mm - - -
1787967410 22.78° C 77% 1020 hPa 0 mm - - -
1787967046 22.78° C 77% 1020 hPa 0 mm - - -
1787966683 23.33° C 77% 1019.9 hPa 0 mm - - -

* Rain latest hour (hover to see other rain measurements)
** Current wind speed in m/s (hover to see current wind gust speed)